sensor_id;sensor_type;location;lat;lon;timestamp;pressure;altitude;pressure_sealevel;temperature;humidity
12468;BME280;57850;52.922;6.256;2023-02-15T00:00:44;103454.13;;;5.04;nan
12468;BME280;57850;52.922;6.256;2023-02-15T00:03:10;103453.88;;;4.96;nan
12468;BME280;57850;52.922;6.256;2023-02-15T00:05:37;103461.44;;;4.89;nan
12468;BME280;57850;52.922;6.256;2023-02-15T00:08:05;103472.88;;;4.68;nan
12468;BME280;57850;52.922;6.256;2023-02-15T00:10:32;103456.53;;;4.98;nan
12468;BME280;57850;52.922;6.256;2023-02-15T00:12:59;103453.78;;;4.93;nan
12468;BME280;57850;52.922;6.256;2023-02-15T00:15:26;103451.25;;;4.95;nan
12468;BME280;57850;52.922;6.256;2023-02-15T00:17:52;103447.75;;;4.93;nan
12468;BME280;57850;52.922;6.256;2023-02-15T00:20:19;103449.09;;;4.80;nan
12468;BME280;57850;52.922;6.256;2023-02-15T00:22:46;103448.00;;;4.72;nan
12468;BME280;57850;52.922;6.256;2023-02-15T00:25:14;103447.94;;;4.70;nan
12468;BME280;57850;52.922;6.256;2023-02-15T00:27:40;103446.13;;;4.66;nan
12468;BME280;57850;52.922;6.256;2023-02-15T00:30:08;103446.84;;;4.62;nan
12468;BME280;57850;52.922;6.256;2023-02-15T00:32:35;103457.88;;;4.57;nan
12468;BME280;57850;52.922;6.256;2023-02-15T00:35:01;103455.22;;;4.54;nan
12468;BME280;57850;52.922;6.256;2023-02-15T00:37:28;103444.72;;;4.49;nan
12468;BME280;57850;52.922;6.256;2023-02-15T00:39:55;103438.28;;;4.65;nan
12468;BME280;57850;52.922;6.256;2023-02-15T00:42:22;103430.88;;;4.75;nan
12468;BME280;57850;52.922;6.256;2023-02-15T00:44:49;103438.34;;;4.66;nan
12468;BME280;57850;52.922;6.256;2023-02-15T00:47:15;103433.13;;;4.65;nan
12468;BME280;57850;52.922;6.256;2023-02-15T00:49:42;103433.00;;;4.60;nan
12468;BME280;57850;52.922;6.256;2023-02-15T00:52:09;103438.22;;;4.62;nan
12468;BME280;57850;52.922;6.256;2023-02-15T00:54:35;103443.19;;;4.56;nan
12468;BME280;57850;52.922;6.256;2023-02-15T00:57:03;103453.50;;;4.27;nan
12468;BME280;57850;52.922;6.256;2023-02-15T00:59:31;103443.72;;;4.44;nan
12468;BME280;57850;52.922;6.256;2023-02-15T01:01:58;103442.00;;;4.45;nan
12468;BME280;57850;52.922;6.256;2023-02-15T01:04:24;103464.44;;;4.19;nan
12468;BME280;57850;52.922;6.256;2023-02-15T01:06:51;103469.94;;;4.03;nan
12468;BME280;57850;52.922;6.256;2023-02-15T01:09:17;103466.09;;;3.92;nan
12468;BME280;57850;52.922;6.256;2023-02-15T01:11:44;103469.13;;;3.78;nan
12468;BME280;57850;52.922;6.256;2023-02-15T01:14:10;103445.78;;;4.01;nan
12468;BME280;57850;52.922;6.256;2023-02-15T01:16:39;103435.25;;;4.23;nan
12468;BME280;57850;52.922;6.256;2023-02-15T01:19:06;103426.00;;;4.29;nan
12468;BME280;57850;52.922;6.256;2023-02-15T01:21:33;103421.72;;;4.30;nan
12468;BME280;57850;52.922;6.256;2023-02-15T01:23:59;103410.59;;;4.32;nan
12468;BME280;57850;52.922;6.256;2023-02-15T01:26:26;103420.75;;;4.26;nan
12468;BME280;57850;52.922;6.256;2023-02-15T01:28:53;103414.66;;;4.24;nan
12468;BME280;57850;52.922;6.256;2023-02-15T01:31:20;103418.91;;;4.22;nan
12468;BME280;57850;52.922;6.256;2023-02-15T01:33:48;103406.03;;;4.24;nan
12468;BME280;57850;52.922;6.256;2023-02-15T01:36:15;103408.22;;;4.12;nan
12468;BME280;57850;52.922;6.256;2023-02-15T01:38:42;103416.47;;;4.00;nan
12468;BME280;57850;52.922;6.256;2023-02-15T01:41:09;103399.09;;;4.23;nan
12468;BME280;57850;52.922;6.256;2023-02-15T01:43:53;103393.81;;;4.20;nan
12468;BME280;57850;52.922;6.256;2023-02-15T01:46:25;103394.69;;;4.19;nan
12468;BME280;57850;52.922;6.256;2023-02-15T01:48:57;103395.88;;;4.30;nan
12468;BME280;57850;52.922;6.256;2023-02-15T01:51:27;103389.81;;;4.29;nan
12468;BME280;57850;52.922;6.256;2023-02-15T01:54:01;103398.16;;;4.19;nan
12468;BME280;57850;52.922;6.256;2023-02-15T01:56:31;103405.28;;;4.01;nan
12468;BME280;57850;52.922;6.256;2023-02-15T01:59:03;103412.66;;;3.89;nan
12468;BME280;57850;52.922;6.256;2023-02-15T02:01:32;103405.88;;;3.93;nan
12468;BME280;57850;52.922;6.256;2023-02-15T02:04:03;103407.97;;;4.04;nan
12468;BME280;57850;52.922;6.256;2023-02-15T02:06:32;103405.44;;;3.79;nan
12468;BME280;57850;52.922;6.256;2023-02-15T02:09:00;103392.88;;;3.90;nan
12468;BME280;57850;52.922;6.256;2023-02-15T02:11:27;103384.69;;;4.03;nan
12468;BME280;57850;52.922;6.256;2023-02-15T02:13:53;103385.56;;;4.03;nan
12468;BME280;57850;52.922;6.256;2023-02-15T02:16:25;103373.84;;;4.14;nan
12468;BME280;57850;52.922;6.256;2023-02-15T02:19:10;103378.13;;;4.14;nan
12468;BME280;57850;52.922;6.256;2023-02-15T02:22:16;103366.06;;;4.13;nan
12468;BME280;57850;52.922;6.256;2023-02-15T02:25:10;103366.63;;;4.03;nan
12468;BME280;57850;52.922;6.256;2023-02-15T02:27:46;103361.81;;;4.15;nan
12468;BME280;57850;52.922;6.256;2023-02-15T02:30:37;103374.81;;;3.90;nan
12468;BME280;57850;52.922;6.256;2023-02-15T02:33:15;103369.63;;;3.90;nan
12468;BME280;57850;52.922;6.256;2023-02-15T02:35:54;103363.06;;;3.99;nan
12468;BME280;57850;52.922;6.256;2023-02-15T02:38:28;103363.84;;;3.97;nan
12468;BME280;57850;52.922;6.256;2023-02-15T02:41:07;103359.31;;;3.90;nan
12468;BME280;57850;52.922;6.256;2023-02-15T02:43:41;103356.44;;;3.81;nan
12468;BME280;57850;52.922;6.256;2023-02-15T02:46:15;103344.34;;;4.06;nan
12468;BME280;57850;52.922;6.256;2023-02-15T02:48:46;103345.03;;;4.01;nan
12468;BME280;57850;52.922;6.256;2023-02-15T02:51:14;103342.00;;;3.87;nan
12468;BME280;57850;52.922;6.256;2023-02-15T02:53:48;103345.66;;;3.94;nan
12468;BME280;57850;52.922;6.256;2023-02-15T02:56:23;103339.63;;;3.93;nan
12468;BME280;57850;52.922;6.256;2023-02-15T02:58:57;103334.75;;;4.02;nan
12468;BME280;57850;52.922;6.256;2023-02-15T03:01:29;103344.94;;;3.98;nan
12468;BME280;57850;52.922;6.256;2023-02-15T03:04:01;103340.94;;;3.81;nan
12468;BME280;57850;52.922;6.256;2023-02-15T03:06:39;103338.47;;;3.84;nan
12468;BME280;57850;52.922;6.256;2023-02-15T03:09:10;103334.97;;;3.82;nan
12468;BME280;57850;52.922;6.256;2023-02-15T03:11:41;103334.22;;;3.86;nan
12468;BME280;57850;52.922;6.256;2023-02-15T03:14:09;103326.94;;;3.72;nan
12468;BME280;57850;52.922;6.256;2023-02-15T03:16:38;103316.69;;;3.75;nan
12468;BME280;57850;52.922;6.256;2023-02-15T03:19:11;103324.53;;;3.78;nan
12468;BME280;57850;52.922;6.256;2023-02-15T03:21:43;103312.97;;;3.94;nan
12468;BME280;57850;52.922;6.256;2023-02-15T03:24:18;103319.31;;;3.77;nan
12468;BME280;57850;52.922;6.256;2023-02-15T03:26:47;103320.72;;;3.67;nan
12468;BME280;57850;52.922;6.256;2023-02-15T03:29:16;103325.69;;;3.61;nan
12468;BME280;57850;52.922;6.256;2023-02-15T03:31:46;103323.22;;;3.64;nan
12468;BME280;57850;52.922;6.256;2023-02-15T03:34:17;103322.28;;;3.62;nan
12468;BME280;57850;52.922;6.256;2023-02-15T03:36:47;103313.97;;;3.71;nan
12468;BME280;57850;52.922;6.256;2023-02-15T03:39:20;103304.88;;;3.82;nan
12468;BME280;57850;52.922;6.256;2023-02-15T03:41:55;103315.75;;;3.73;nan
12468;BME280;57850;52.922;6.256;2023-02-15T03:44:27;103301.94;;;3.71;nan
12468;BME280;57850;52.922;6.256;2023-02-15T03:46:59;103304.72;;;3.79;nan
12468;BME280;57850;52.922;6.256;2023-02-15T03:49:34;103302.16;;;3.79;nan
12468;BME280;57850;52.922;6.256;2023-02-15T03:52:04;103306.91;;;3.65;nan
12468;BME280;57850;52.922;6.256;2023-02-15T03:54:34;103309.50;;;3.67;nan
12468;BME280;57850;52.922;6.256;2023-02-15T03:57:18;103309.47;;;3.65;nan
12468;BME280;57850;52.922;6.256;2023-02-15T04:00:04;103306.66;;;3.58;nan
12468;BME280;57850;52.922;6.256;2023-02-15T04:02:58;103299.16;;;3.65;nan
12468;BME280;57850;52.922;6.256;2023-02-15T04:05:32;103303.09;;;3.54;nan
12468;BME280;57850;52.922;6.256;2023-02-15T04:07:58;103302.34;;;3.57;nan
12468;BME280;57850;52.922;6.256;2023-02-15T04:10:25;103296.69;;;3.68;nan
12468;BME280;57850;52.922;6.256;2023-02-15T04:13:09;103303.94;;;3.53;nan
12468;BME280;57850;52.922;6.256;2023-02-15T04:15:36;103305.84;;;3.60;nan
12468;BME280;57850;52.922;6.256;2023-02-15T04:18:20;103307.13;;;3.46;nan
12468;BME280;57850;52.922;6.256;2023-02-15T04:20:48;103306.94;;;3.40;nan
12468;BME280;57850;52.922;6.256;2023-02-15T04:23:32;103296.97;;;3.51;nan
12468;BME280;57850;52.922;6.256;2023-02-15T04:26:16;103307.91;;;3.44;nan
12468;BME280;57850;52.922;6.256;2023-02-15T04:28:43;103302.66;;;3.41;nan
12468;BME280;57850;52.922;6.256;2023-02-15T04:31:09;103305.38;;;3.45;nan
12468;BME280;57850;52.922;6.256;2023-02-15T04:33:36;103302.78;;;3.45;nan
12468;BME280;57850;52.922;6.256;2023-02-15T04:36:05;103295.00;;;3.44;nan
12468;BME280;57850;52.922;6.256;2023-02-15T04:38:31;103297.50;;;3.41;nan
12468;BME280;57850;52.922;6.256;2023-02-15T04:40:58;103292.56;;;3.48;nan
12468;BME280;57850;52.922;6.256;2023-02-15T04:43:24;103298.69;;;3.25;nan
12468;BME280;57850;52.922;6.256;2023-02-15T04:45:51;103289.25;;;3.26;nan
12468;BME280;57850;52.922;6.256;2023-02-15T04:48:18;103291.84;;;3.26;nan
12468;BME280;57850;52.922;6.256;2023-02-15T04:50:44;103286.69;;;3.26;nan
12468;BME280;57850;52.922;6.256;2023-02-15T04:53:12;103286.50;;;3.21;nan
12468;BME280;57850;52.922;6.256;2023-02-15T04:55:39;103278.09;;;3.27;nan
12468;BME280;57850;52.922;6.256;2023-02-15T04:58:07;103277.75;;;3.41;nan
12468;BME280;57850;52.922;6.256;2023-02-15T05:00:33;103275.88;;;3.37;nan
12468;BME280;57850;52.922;6.256;2023-02-15T05:03:00;103276.50;;;3.30;nan
12468;BME280;57850;52.922;6.256;2023-02-15T05:05:26;103278.56;;;3.15;nan
12468;BME280;57850;52.922;6.256;2023-02-15T05:07:53;103284.09;;;3.00;nan
12468;BME280;57850;52.922;6.256;2023-02-15T05:10:21;103281.31;;;2.94;nan
12468;BME280;57850;52.922;6.256;2023-02-15T05:12:47;103278.94;;;3.00;nan
12468;BME280;57850;52.922;6.256;2023-02-15T05:15:14;103271.41;;;3.06;nan
12468;BME280;57850;52.922;6.256;2023-02-15T05:17:40;103266.50;;;3.14;nan
12468;BME280;57850;52.922;6.256;2023-02-15T05:20:07;103265.69;;;3.15;nan
12468;BME280;57850;52.922;6.256;2023-02-15T05:22:34;103261.41;;;3.15;nan
12468;BME280;57850;52.922;6.256;2023-02-15T05:25:01;103254.75;;;3.22;nan
12468;BME280;57850;52.922;6.256;2023-02-15T05:27:46;103267.78;;;3.01;nan
12468;BME280;57850;52.922;6.256;2023-02-15T05:30:30;103265.97;;;2.97;nan
12468;BME280;57850;52.922;6.256;2023-02-15T05:32:56;103266.66;;;2.93;nan
12468;BME280;57850;52.922;6.256;2023-02-15T05:35:23;103258.47;;;3.05;nan
12468;BME280;57850;52.922;6.256;2023-02-15T05:37:49;103229.63;;;3.43;nan
12468;BME280;57850;52.922;6.256;2023-02-15T05:40:16;103234.88;;;3.46;nan
12468;BME280;57850;52.922;6.256;2023-02-15T05:42:43;103234.69;;;3.40;nan
12468;BME280;57850;52.922;6.256;2023-02-15T05:45:11;103218.16;;;3.62;nan
12468;BME280;57850;52.922;6.256;2023-02-15T05:47:37;103223.16;;;3.57;nan
12468;BME280;57850;52.922;6.256;2023-02-15T05:50:05;103229.66;;;3.45;nan
12468;BME280;57850;52.922;6.256;2023-02-15T05:52:32;103189.69;;;3.89;nan
12468;BME280;57850;52.922;6.256;2023-02-15T05:54:59;103194.31;;;3.70;nan
12468;BME280;57850;52.922;6.256;2023-02-15T05:57:25;103193.41;;;3.68;nan
12468;BME280;57850;52.922;6.256;2023-02-15T05:59:52;103189.22;;;3.44;nan
12468;BME280;57850;52.922;6.256;2023-02-15T06:02:20;103191.66;;;3.39;nan
12468;BME280;57850;52.922;6.256;2023-02-15T06:04:47;103191.19;;;3.24;nan
12468;BME280;57850;52.922;6.256;2023-02-15T06:07:13;103170.28;;;3.43;nan
12468;BME280;57850;52.922;6.256;2023-02-15T06:09:40;103182.91;;;3.07;nan
12468;BME280;57850;52.922;6.256;2023-02-15T06:12:07;103155.25;;;3.58;nan
12468;BME280;57850;52.922;6.256;2023-02-15T06:14:33;103160.41;;;3.58;nan
12468;BME280;57850;52.922;6.256;2023-02-15T06:17:00;103162.81;;;3.52;nan
12468;BME280;57850;52.922;6.256;2023-02-15T06:19:27;103161.31;;;3.60;nan
12468;BME280;57850;52.922;6.256;2023-02-15T06:21:54;103166.03;;;3.73;nan
12468;BME280;57850;52.922;6.256;2023-02-15T06:24:20;103161.47;;;3.95;nan
12468;BME280;57850;52.922;6.256;2023-02-15T06:26:47;103159.41;;;3.83;nan
12468;BME280;57850;52.922;6.256;2023-02-15T06:29:14;103171.84;;;3.66;nan
12468;BME280;57850;52.922;6.256;2023-02-15T06:31:40;103158.88;;;3.65;nan
12468;BME280;57850;52.922;6.256;2023-02-15T06:34:07;103146.47;;;3.82;nan
12468;BME280;57850;52.922;6.256;2023-02-15T06:36:36;103161.66;;;3.43;nan
12468;BME280;57850;52.922;6.256;2023-02-15T06:39:03;103148.63;;;3.38;nan
12468;BME280;57850;52.922;6.256;2023-02-15T06:41:29;103126.50;;;3.46;nan
12468;BME280;57850;52.922;6.256;2023-02-15T06:43:56;103124.84;;;3.48;nan
12468;BME280;57850;52.922;6.256;2023-02-15T06:46:23;103110.81;;;3.68;nan
12468;BME280;57850;52.922;6.256;2023-02-15T06:48:49;103123.09;;;3.47;nan
12468;BME280;57850;52.922;6.256;2023-02-15T06:51:16;103114.31;;;3.70;nan
12468;BME280;57850;52.922;6.256;2023-02-15T06:53:44;103107.66;;;3.78;nan
12468;BME280;57850;52.922;6.256;2023-02-15T06:56:11;103133.59;;;3.53;nan
12468;BME280;57850;52.922;6.256;2023-02-15T06:58:39;103133.59;;;3.53;nan
12468;BME280;57850;52.922;6.256;2023-02-15T07:01:07;103134.50;;;3.54;nan
12468;BME280;57850;52.922;6.256;2023-02-15T07:03:35;103127.66;;;3.56;nan
12468;BME280;57850;52.922;6.256;2023-02-15T07:06:03;103136.56;;;3.37;nan
12468;BME280;57850;52.922;6.256;2023-02-15T07:08:31;103129.09;;;3.46;nan
12468;BME280;57850;52.922;6.256;2023-02-15T07:10:59;103122.16;;;3.45;nan
12468;BME280;57850;52.922;6.256;2023-02-15T07:13:45;103128.28;;;3.47;nan
12468;BME280;57850;52.922;6.256;2023-02-15T07:16:11;103084.84;;;4.26;nan
12468;BME280;57850;52.922;6.256;2023-02-15T07:18:38;103081.34;;;4.57;nan
12468;BME280;57850;52.922;6.256;2023-02-15T07:21:05;103102.69;;;4.17;nan
12468;BME280;57850;52.922;6.256;2023-02-15T07:23:33;103112.47;;;3.96;nan
12468;BME280;57850;52.922;6.256;2023-02-15T07:26:01;103107.38;;;3.99;nan
12468;BME280;57850;52.922;6.256;2023-02-15T07:28:28;103120.13;;;3.63;nan
12468;BME280;57850;52.922;6.256;2023-02-15T07:30:55;103110.72;;;3.65;nan
12468;BME280;57850;52.922;6.256;2023-02-15T07:33:22;103104.63;;;3.63;nan
12468;BME280;57850;52.922;6.256;2023-02-15T07:35:49;103085.16;;;3.74;nan
12468;BME280;57850;52.922;6.256;2023-02-15T07:38:16;103079.44;;;3.85;nan
12468;BME280;57850;52.922;6.256;2023-02-15T07:40:43;103081.53;;;3.66;nan
12468;BME280;57850;52.922;6.256;2023-02-15T07:43:12;103079.19;;;3.75;nan
12468;BME280;57850;52.922;6.256;2023-02-15T07:45:40;103082.38;;;3.67;nan
12468;BME280;57850;52.922;6.256;2023-02-15T07:48:07;103071.63;;;3.83;nan
12468;BME280;57850;52.922;6.256;2023-02-15T07:50:33;103073.16;;;3.76;nan
12468;BME280;57850;52.922;6.256;2023-02-15T07:53:01;103061.16;;;3.77;nan
12468;BME280;57850;52.922;6.256;2023-02-15T07:55:28;103057.47;;;4.00;nan
12468;BME280;57850;52.922;6.256;2023-02-15T07:57:55;103057.44;;;3.99;nan
12468;BME280;57850;52.922;6.256;2023-02-15T08:00:23;103053.28;;;4.04;nan
12468;BME280;57850;52.922;6.256;2023-02-15T08:02:50;103049.41;;;4.21;nan
12468;BME280;57850;52.922;6.256;2023-02-15T08:05:38;103053.50;;;4.13;nan
12468;BME280;57850;52.922;6.256;2023-02-15T08:08:06;103036.84;;;4.36;nan
12468;BME280;57850;52.922;6.256;2023-02-15T08:10:32;103039.28;;;4.30;nan
12468;BME280;57850;52.922;6.256;2023-02-15T08:13:16;103048.38;;;4.14;nan
12468;BME280;57850;52.922;6.256;2023-02-15T08:15:49;103043.06;;;4.43;nan
12468;BME280;57850;52.922;6.256;2023-02-15T08:18:15;103047.03;;;4.30;nan
12468;BME280;57850;52.922;6.256;2023-02-15T08:20:42;103027.06;;;4.57;nan
12468;BME280;57850;52.922;6.256;2023-02-15T08:23:08;103026.47;;;4.70;nan
12468;BME280;57850;52.922;6.256;2023-02-15T08:25:35;103015.63;;;4.85;nan
12468;BME280;57850;52.922;6.256;2023-02-15T08:28:02;103014.06;;;4.92;nan
12468;BME280;57850;52.922;6.256;2023-02-15T08:30:29;103009.13;;;5.04;nan
12468;BME280;57850;52.922;6.256;2023-02-15T08:32:56;103010.34;;;5.21;nan
12468;BME280;57850;52.922;6.256;2023-02-15T08:35:23;102996.16;;;5.44;nan
12468;BME280;57850;52.922;6.256;2023-02-15T08:37:51;102987.66;;;5.96;nan
12468;BME280;57850;52.922;6.256;2023-02-15T08:40:17;102970.28;;;6.43;nan
12468;BME280;57850;52.922;6.256;2023-02-15T08:42:44;102978.16;;;6.49;nan
12468;BME280;57850;52.922;6.256;2023-02-15T08:45:10;102969.97;;;6.82;nan
12468;BME280;57850;52.922;6.256;2023-02-15T08:47:37;102966.66;;;6.93;nan
12468;BME280;57850;52.922;6.256;2023-02-15T08:50:06;102980.91;;;6.60;nan
12468;BME280;57850;52.922;6.256;2023-02-15T08:52:32;102988.72;;;6.63;nan
12468;BME280;57850;52.922;6.256;2023-02-15T08:54:59;102979.91;;;6.52;nan
12468;BME280;57850;52.922;6.256;2023-02-15T08:57:27;102949.78;;;7.26;nan
12468;BME280;57850;52.922;6.256;2023-02-15T08:59:53;102952.50;;;7.39;nan
12468;BME280;57850;52.922;6.256;2023-02-15T09:02:20;102944.19;;;7.72;nan
12468;BME280;57850;52.922;6.256;2023-02-15T09:04:46;102967.72;;;7.09;nan
12468;BME280;57850;52.922;6.256;2023-02-15T09:07:14;102930.44;;;7.85;nan
12468;BME280;57850;52.922;6.256;2023-02-15T09:09:42;102920.28;;;8.16;nan
12468;BME280;57850;52.922;6.256;2023-02-15T09:12:09;102887.69;;;8.69;nan
12468;BME280;57850;52.922;6.256;2023-02-15T09:14:36;102847.09;;;9.89;nan
12468;BME280;57850;52.922;6.256;2023-02-15T09:17:02;102853.16;;;9.82;nan
12468;BME280;57850;52.922;6.256;2023-02-15T09:19:29;102900.75;;;8.80;nan
12468;BME280;57850;52.922;6.256;2023-02-15T09:21:56;102883.50;;;9.12;nan
12468;BME280;57850;52.922;6.256;2023-02-15T09:24:25;102859.25;;;9.52;nan
12468;BME280;57850;52.922;6.256;2023-02-15T09:26:51;102877.44;;;9.16;nan
12468;BME280;57850;52.922;6.256;2023-02-15T09:29:18;102895.47;;;8.63;nan
12468;BME280;57850;52.922;6.256;2023-02-15T09:31:47;102862.66;;;9.15;nan
12468;BME280;57850;52.922;6.256;2023-02-15T09:34:15;102840.13;;;9.88;nan
12468;BME280;57850;52.922;6.256;2023-02-15T09:36:43;102789.41;;;10.77;nan
12468;BME280;57850;52.922;6.256;2023-02-15T09:39:12;102819.19;;;10.37;nan
12468;BME280;57850;52.922;6.256;2023-02-15T09:42:03;102805.16;;;10.59;nan
12468;BME280;57850;52.922;6.256;2023-02-15T09:44:41;102830.53;;;10.02;nan
12468;BME280;57850;52.922;6.256;2023-02-15T09:47:28;102782.16;;;11.15;nan
12468;BME280;57850;52.922;6.256;2023-02-15T09:50:08;102776.03;;;11.24;nan
12468;BME280;57850;52.922;6.256;2023-02-15T09:52:48;102820.81;;;10.56;nan
12468;BME280;57850;52.922;6.256;2023-02-15T09:55:24;102822.59;;;10.55;nan
12468;BME280;57850;52.922;6.256;2023-02-15T09:58:05;102810.28;;;10.80;nan
12468;BME280;57850;52.922;6.256;2023-02-15T10:00:40;102784.66;;;11.34;nan
12468;BME280;57850;52.922;6.256;2023-02-15T10:03:23;102751.72;;;12.04;nan
12468;BME280;57850;52.922;6.256;2023-02-15T10:06:10;102795.13;;;11.34;nan
12468;BME280;57850;52.922;6.256;2023-02-15T10:08:57;102808.22;;;11.24;nan
12468;BME280;57850;52.922;6.256;2023-02-15T10:11:35;102756.09;;;12.05;nan
12468;BME280;57850;52.922;6.256;2023-02-15T10:14:21;102789.75;;;11.49;nan
12468;BME280;57850;52.922;6.256;2023-02-15T10:16:58;102739.81;;;12.49;nan
12468;BME280;57850;52.922;6.256;2023-02-15T10:19:33;102716.63;;;12.83;nan
12468;BME280;57850;52.922;6.256;2023-02-15T10:22:15;102816.16;;;11.12;nan
12468;BME280;57850;52.922;6.256;2023-02-15T10:24:58;102776.34;;;11.87;nan
12468;BME280;57850;52.922;6.256;2023-02-15T10:27:35;102794.06;;;11.54;nan
12468;BME280;57850;52.922;6.256;2023-02-15T10:30:10;102749.72;;;12.27;nan
12468;BME280;57850;52.922;6.256;2023-02-15T10:32:42;102722.88;;;12.73;nan
12468;BME280;57850;52.922;6.256;2023-02-15T10:35:22;102717.69;;;12.71;nan
12468;BME280;57850;52.922;6.256;2023-02-15T10:37:59;102710.41;;;12.88;nan
12468;BME280;57850;52.922;6.256;2023-02-15T10:40:33;102714.00;;;12.81;nan
12468;BME280;57850;52.922;6.256;2023-02-15T10:43:27;102730.81;;;12.68;nan
12468;BME280;57850;52.922;6.256;2023-02-15T10:46:03;102744.41;;;12.32;nan
12468;BME280;57850;52.922;6.256;2023-02-15T10:48:43;102724.75;;;12.65;nan
12468;BME280;57850;52.922;6.256;2023-02-15T10:51:17;102753.25;;;12.22;nan
12468;BME280;57850;52.922;6.256;2023-02-15T10:53:58;102740.63;;;12.54;nan
12468;BME280;57850;52.922;6.256;2023-02-15T10:56:33;102761.28;;;12.08;nan
12468;BME280;57850;52.922;6.256;2023-02-15T10:59:22;102701.22;;;13.18;nan
12468;BME280;57850;52.922;6.256;2023-02-15T11:01:57;102698.63;;;13.17;nan
12468;BME280;57850;52.922;6.256;2023-02-15T11:04:49;102708.91;;;12.74;nan
12468;BME280;57850;52.922;6.256;2023-02-15T11:07:20;102672.47;;;13.60;nan
12468;BME280;57850;52.922;6.256;2023-02-15T11:09:52;102661.09;;;13.62;nan
12468;BME280;57850;52.922;6.256;2023-02-15T11:12:24;102648.59;;;13.75;nan
12468;BME280;57850;52.922;6.256;2023-02-15T11:14:57;102578.47;;;14.90;nan
12468;BME280;57850;52.922;6.256;2023-02-15T11:17:33;102556.59;;;15.22;nan
12468;BME280;57850;52.922;6.256;2023-02-15T11:20:08;102563.63;;;15.20;nan
12468;BME280;57850;52.922;6.256;2023-02-15T11:22:42;102543.63;;;15.45;nan
12468;BME280;57850;52.922;6.256;2023-02-15T11:25:17;102568.34;;;15.09;nan
12468;BME280;57850;52.922;6.256;2023-02-15T11:27:46;102595.00;;;14.62;nan
12468;BME280;57850;52.922;6.256;2023-02-15T11:30:19;102599.38;;;14.61;nan
12468;BME280;57850;52.922;6.256;2023-02-15T11:32:50;102547.47;;;15.65;nan
12468;BME280;57850;52.922;6.256;2023-02-15T11:35:22;102549.19;;;15.35;nan
12468;BME280;57850;52.922;6.256;2023-02-15T11:37:54;102572.06;;;15.00;nan
12468;BME280;57850;52.922;6.256;2023-02-15T11:40:25;102534.19;;;15.69;nan
12468;BME280;57850;52.922;6.256;2023-02-15T11:42:55;102560.44;;;15.09;nan
12468;BME280;57850;52.922;6.256;2023-02-15T11:45:26;102514.31;;;15.87;nan
12468;BME280;57850;52.922;6.256;2023-02-15T11:47:55;102473.22;;;16.62;nan
12468;BME280;57850;52.922;6.256;2023-02-15T11:50:25;102507.91;;;15.68;nan
12468;BME280;57850;52.922;6.256;2023-02-15T11:52:56;102590.22;;;14.42;nan
12468;BME280;57850;52.922;6.256;2023-02-15T11:55:24;102550.91;;;15.05;nan
12468;BME280;57850;52.922;6.256;2023-02-15T11:57:56;102513.63;;;15.52;nan
12468;BME280;57850;52.922;6.256;2023-02-15T12:00:32;102479.41;;;16.08;nan
12468;BME280;57850;52.922;6.256;2023-02-15T12:03:13;102458.66;;;16.50;nan
12468;BME280;57850;52.922;6.256;2023-02-15T12:05:42;102457.78;;;16.49;nan
12468;BME280;57850;52.922;6.256;2023-02-15T12:08:15;102466.44;;;16.02;nan
12468;BME280;57850;52.922;6.256;2023-02-15T12:10:53;102469.97;;;16.01;nan
12468;BME280;57850;52.922;6.256;2023-02-15T12:13:22;102454.50;;;16.18;nan
12468;BME280;57850;52.922;6.256;2023-02-15T12:15:50;102420.47;;;16.63;nan
12468;BME280;57850;52.922;6.256;2023-02-15T12:18:27;102479.84;;;15.67;nan
12468;BME280;57850;52.922;6.256;2023-02-15T12:20:59;102427.72;;;16.30;nan
12468;BME280;57850;52.922;6.256;2023-02-15T12:23:28;102417.84;;;16.37;nan
12468;BME280;57850;52.922;6.256;2023-02-15T12:25:56;102480.66;;;15.39;nan
12468;BME280;57850;52.922;6.256;2023-02-15T12:28:25;102432.56;;;16.18;nan
12468;BME280;57850;52.922;6.256;2023-02-15T12:30:54;102368.38;;;17.14;nan
12468;BME280;57850;52.922;6.256;2023-02-15T12:33:27;102429.97;;;15.90;nan
12468;BME280;57850;52.922;6.256;2023-02-15T12:35:57;102438.53;;;15.96;nan
12468;BME280;57850;52.922;6.256;2023-02-15T12:38:26;102425.06;;;16.05;nan
12468;BME280;57850;52.922;6.256;2023-02-15T12:40:58;102450.00;;;15.68;nan
12468;BME280;57850;52.922;6.256;2023-02-15T12:43:26;102474.41;;;15.14;nan
12468;BME280;57850;52.922;6.256;2023-02-15T12:45:53;102483.78;;;14.93;nan
12468;BME280;57850;52.922;6.256;2023-02-15T12:48:41;102465.25;;;15.27;nan
12468;BME280;57850;52.922;6.256;2023-02-15T12:51:14;102475.66;;;15.01;nan
12468;BME280;57850;52.922;6.256;2023-02-15T12:53:41;102423.38;;;15.77;nan
12468;BME280;57850;52.922;6.256;2023-02-15T12:56:09;102457.59;;;15.20;nan
12468;BME280;57850;52.922;6.256;2023-02-15T12:58:37;102454.25;;;15.15;nan
12468;BME280;57850;52.922;6.256;2023-02-15T13:01:11;102440.63;;;15.30;nan
12468;BME280;57850;52.922;6.256;2023-02-15T13:03:50;102405.84;;;15.77;nan
12468;BME280;57850;52.922;6.256;2023-02-15T13:06:19;102425.84;;;15.26;nan
12468;BME280;57850;52.922;6.256;2023-02-15T13:08:49;102390.50;;;15.90;nan
12468;BME280;57850;52.922;6.256;2023-02-15T13:11:21;102422.94;;;15.35;nan
12468;BME280;57850;52.922;6.256;2023-02-15T13:13:51;102436.31;;;14.98;nan
12468;BME280;57850;52.922;6.256;2023-02-15T13:16:25;102400.13;;;15.63;nan
12468;BME280;57850;52.922;6.256;2023-02-15T13:18:57;102412.94;;;15.46;nan
12468;BME280;57850;52.922;6.256;2023-02-15T13:21:29;102411.47;;;15.37;nan
12468;BME280;57850;52.922;6.256;2023-02-15T13:24:01;102427.06;;;15.14;nan
12468;BME280;57850;52.922;6.256;2023-02-15T13:26:30;102396.31;;;15.45;nan
12468;BME280;57850;52.922;6.256;2023-02-15T13:29:06;102437.09;;;14.71;nan
12468;BME280;57850;52.922;6.256;2023-02-15T13:31:35;102421.66;;;14.91;nan
12468;BME280;57850;52.922;6.256;2023-02-15T13:34:09;102401.44;;;15.22;nan
12468;BME280;57850;52.922;6.256;2023-02-15T13:36:45;102383.22;;;15.44;nan
12468;BME280;57850;52.922;6.256;2023-02-15T13:39:21;102378.59;;;15.52;nan